createdAt,value
2018-10-18T00:00:35.382Z,54.63
2018-10-18T00:03:04.443Z,57.00
2018-10-18T00:05:33.507Z,53.50
2018-10-18T00:08:02.664Z,51.43
2018-10-18T00:10:31.400Z,51.03
2018-10-18T00:13:00.012Z,62.23
2018-10-18T00:15:28.739Z,55.17
2018-10-18T00:17:57.560Z,51.20
2018-10-18T00:20:26.712Z,55.33
2018-10-18T00:22:55.394Z,51.63
2018-10-18T00:25:24.117Z,48.57
2018-10-18T00:27:52.806Z,52.73
2018-10-18T00:30:21.800Z,50.47
2018-10-18T00:32:50.652Z,63.17
2018-10-18T00:35:19.507Z,60.00
2018-10-18T00:37:48.399Z,50.80
2018-10-18T00:40:17.248Z,52.77
2018-10-18T00:42:45.990Z,50.40
2018-10-18T00:45:14.737Z,51.27
2018-10-18T00:47:43.499Z,58.20
2018-10-18T00:50:19.187Z,47.80
2018-10-18T00:52:47.793Z,57.73
2018-10-18T00:55:16.870Z,50.13
2018-10-18T00:57:45.827Z,60.10
2018-10-18T01:00:14.667Z,60.27
2018-10-18T01:02:46.302Z,49.50
2018-10-18T01:05:15.339Z,50.53
2018-10-18T01:07:44.252Z,50.57
2018-10-18T01:10:13.308Z,49.13
2018-10-18T01:12:42.101Z,52.90
2018-10-18T01:15:11.149Z,55.30
2018-10-18T01:17:40.767Z,47.23
2018-10-18T01:20:09.618Z,51.20
2018-10-18T01:22:38.419Z,51.23
2018-10-18T01:25:07.559Z,50.30
2018-10-18T01:27:36.411Z,45.83
2018-10-18T01:30:05.730Z,52.37
2018-10-18T01:32:34.346Z,48.10
2018-10-18T01:35:03.429Z,53.90
2018-10-18T01:37:32.062Z,50.93
2018-10-18T01:40:01.047Z,54.27
2018-10-18T01:42:29.866Z,53.97
2018-10-18T01:44:58.630Z,51.70
2018-10-18T01:47:27.745Z,56.50
2018-10-18T01:49:56.620Z,45.60
2018-10-18T01:52:25.737Z,53.40
2018-10-18T01:54:54.631Z,47.80
2018-10-18T01:57:23.535Z,51.33
2018-10-18T01:59:52.427Z,49.80
2018-10-18T02:02:21.316Z,52.80
2018-10-18T02:04:50.085Z,50.87
2018-10-18T02:07:18.807Z,48.47
2018-10-18T02:09:47.751Z,52.20
2018-10-18T02:12:16.623Z,48.00
2018-10-18T02:14:45.332Z,46.20
2018-10-18T02:17:14.344Z,47.10
2018-10-18T02:19:43.212Z,54.17
2018-10-18T02:22:12.075Z,50.30
2018-10-18T02:24:40.841Z,51.50
2018-10-18T02:27:09.584Z,56.67
2018-10-18T02:29:38.250Z,51.27
2018-10-18T02:32:07.230Z,55.33
2018-10-18T02:34:36.158Z,55.33
2018-10-18T02:37:06.327Z,55.87
2018-10-18T02:39:35.169Z,49.20
2018-10-18T02:42:04.563Z,45.23
2018-10-18T02:44:33.347Z,55.50
2018-10-18T02:47:02.159Z,52.10
2018-10-18T02:49:30.768Z,53.13
2018-10-18T02:51:59.531Z,51.17
2018-10-18T02:54:28.140Z,52.70
2018-10-18T02:56:57.270Z,58.90
2018-10-18T02:59:26.688Z,46.13
2018-10-18T03:01:55.485Z,47.70
2018-10-18T03:04:24.328Z,49.53
2018-10-18T03:06:53.094Z,57.43
2018-10-18T03:09:22.063Z,46.80
2018-10-18T03:11:50.888Z,49.10
2018-10-18T03:14:19.695Z,52.57
2018-10-18T03:16:48.540Z,53.03
2018-10-18T03:19:17.355Z,55.13
2018-10-18T03:21:46.279Z,51.67
2018-10-18T03:24:15.125Z,45.13
2018-10-18T03:26:44.514Z,44.47
2018-10-18T03:29:13.287Z,49.77
2018-10-18T03:31:41.946Z,62.37
2018-10-18T03:34:10.746Z,51.53
2018-10-18T03:36:39.650Z,48.93
2018-10-18T03:39:10.633Z,46.67
2018-10-18T03:41:39.488Z,50.20
2018-10-18T03:44:08.355Z,48.50
2018-10-18T03:46:37.196Z,50.80
2018-10-18T03:49:06.154Z,54.57
2018-10-18T03:51:35.303Z,47.37
2018-10-18T03:54:04.020Z,53.73
2018-10-18T03:56:33.068Z,49.10
2018-10-18T03:59:01.713Z,53.40
2018-10-18T04:04:25.863Z,52.60
2018-10-18T04:06:54.279Z,51.10
2018-10-18T04:09:22.762Z,51.40
2018-10-18T04:11:51.134Z,51.47
2018-10-18T04:14:19.515Z,46.63
2018-10-18T04:16:47.836Z,50.57
2018-10-18T04:19:16.359Z,51.67
2018-10-18T04:21:44.890Z,50.63
2018-10-18T04:24:13.571Z,45.60
2018-10-18T04:26:41.968Z,51.10
2018-10-18T04:29:10.269Z,54.80
2018-10-18T04:31:38.604Z,48.30
2018-10-18T04:34:06.923Z,52.93
2018-10-18T04:36:35.281Z,50.30
2018-10-18T04:39:04.406Z,59.33
2018-10-18T04:41:33.631Z,52.67
2018-10-18T04:44:01.981Z,51.93
2018-10-18T04:46:30.365Z,49.87
2018-10-18T04:48:58.751Z,52.13
2018-10-18T04:51:27.159Z,51.27
2018-10-18T04:53:55.436Z,51.40
2018-10-18T04:56:23.915Z,53.53
2018-10-18T04:58:52.350Z,61.67
2018-10-18T05:01:21.058Z,55.03
2018-10-18T05:03:49.231Z,64.37
2018-10-18T05:06:17.730Z,56.77
2018-10-18T05:08:46.036Z,53.70
2018-10-18T05:11:14.412Z,53.00
2018-10-18T05:13:42.703Z,64.33
2018-10-18T05:16:11.144Z,53.63
2018-10-18T05:18:39.447Z,53.20
2018-10-18T05:21:07.995Z,67.33
2018-10-18T05:23:36.381Z,57.60
2018-10-18T05:26:06.850Z,73.33
2018-10-18T05:28:35.460Z,66.10
2018-10-18T05:31:03.849Z,67.33
2018-10-18T05:33:32.314Z,72.67
2018-10-18T05:36:01.109Z,92.13
2018-10-18T05:38:29.451Z,73.20
2018-10-18T05:40:58.554Z,129.33
2018-10-18T05:43:26.930Z,66.03
2018-10-18T05:45:56.021Z,92.63
2018-10-18T05:48:24.447Z,607.60
2018-10-18T05:50:52.823Z,162.77
2018-10-18T05:53:21.235Z,189.23
2018-10-18T05:55:50.068Z,150.37
2018-10-18T05:58:18.381Z,128.07
2018-10-18T06:00:47.072Z,106.43
2018-10-18T06:05:52.835Z,58.23
2018-10-18T06:08:21.114Z,66.13
2018-10-18T06:11:00.719Z,75.50
2018-10-18T06:13:29.052Z,74.07
2018-10-18T06:15:57.923Z,63.63
2018-10-18T06:18:26.235Z,61.73
2018-10-18T06:20:54.769Z,67.60
2018-10-18T06:23:23.220Z,66.90
2018-10-18T06:25:51.703Z,57.97
2018-10-18T06:28:20.306Z,62.53
2018-10-18T06:30:48.661Z,86.27
2018-10-18T06:33:17.172Z,66.37
2018-10-18T06:35:46.212Z,73.10
2018-10-18T06:38:14.676Z,68.83
2018-10-18T06:40:43.061Z,61.10
2018-10-18T06:43:11.698Z,60.70
2018-10-18T06:45:40.007Z,64.20
2018-10-18T06:48:08.433Z,64.17
2018-10-18T06:50:36.739Z,62.30
2018-10-18T06:53:05.202Z,63.30
2018-10-18T06:55:33.534Z,58.97
2018-10-18T06:58:01.858Z,71.80
2018-10-18T07:00:31.250Z,76.60
2018-10-18T07:02:59.608Z,65.50
2018-10-18T07:05:28.297Z,63.93
2018-10-18T07:07:57.120Z,64.93
2018-10-18T07:10:25.930Z,62.93
2018-10-18T07:12:54.542Z,73.70
2018-10-18T07:15:23.263Z,89.90
2018-10-18T07:17:51.762Z,167.67
2018-10-18T07:20:20.276Z,123.23
2018-10-18T07:22:49.422Z,116.33
2018-10-18T07:25:18.055Z,129.67
2018-10-18T07:27:46.508Z,171.87
2018-10-18T07:30:15.669Z,120.33
2018-10-18T07:32:43.997Z,108.77
2018-10-18T07:35:13.471Z,103.60
2018-10-18T07:37:41.658Z,91.43
2018-10-18T07:40:13.292Z,120.37
2018-10-18T07:42:42.008Z,89.67
2018-10-18T07:45:11.263Z,94.07
2018-10-18T07:47:39.747Z,101.17
2018-10-18T07:50:08.117Z,106.70
2018-10-18T07:52:36.710Z,89.20
2018-10-18T07:55:05.804Z,114.07
2018-10-18T07:57:34.220Z,113.70
2018-10-18T08:00:02.653Z,128.17
2018-10-18T08:02:30.983Z,136.43
2018-10-18T08:04:59.478Z,110.33
2018-10-18T08:07:28.370Z,106.03
2018-10-18T08:09:57.297Z,117.37
2018-10-18T08:12:25.763Z,116.13
2018-10-18T08:14:54.101Z,127.47
2018-10-18T08:17:22.537Z,127.07
2018-10-18T08:19:51.069Z,121.77
2018-10-18T08:22:19.469Z,109.33
2018-10-18T08:24:47.857Z,106.40
2018-10-18T08:27:16.361Z,120.80
2018-10-18T08:29:44.671Z,109.27
2018-10-18T08:32:13.007Z,101.77
2018-10-18T08:34:41.330Z,112.93
2018-10-18T08:37:09.918Z,102.63
2018-10-18T08:39:38.289Z,111.50
2018-10-18T08:42:06.870Z,103.17
2018-10-18T08:44:35.289Z,100.73
2018-10-18T08:47:03.687Z,99.87
2018-10-18T08:49:32.043Z,100.83
2018-10-18T08:52:00.377Z,103.10
2018-10-18T08:54:28.802Z,99.77
2018-10-18T08:56:57.184Z,105.90
2018-10-18T08:59:25.988Z,103.83
2018-10-18T09:01:54.360Z,98.73
2018-10-18T09:04:22.841Z,103.77
2018-10-18T09:06:51.215Z,94.23
2018-10-18T09:09:19.671Z,90.53
2018-10-18T09:11:48.415Z,90.80
2018-10-18T09:14:16.737Z,105.50
2018-10-18T09:16:45.243Z,90.53
2018-10-18T09:19:14.180Z,98.33
2018-10-18T09:21:42.660Z,87.47
2018-10-18T09:24:11.482Z,83.07
2018-10-18T09:26:40.052Z,86.63
2018-10-18T09:29:08.472Z,88.30
2018-10-18T09:31:36.951Z,92.03
2018-10-18T09:34:05.577Z,78.00
2018-10-18T09:36:33.951Z,89.40
2018-10-18T09:39:02.588Z,80.33
2018-10-18T09:41:31.069Z,82.70
2018-10-18T09:44:03.240Z,84.23
2018-10-18T09:46:32.477Z,77.73
2018-10-18T09:49:01.323Z,79.77
2018-10-18T09:51:29.747Z,70.30
2018-10-18T09:53:58.440Z,82.43
2018-10-18T09:56:26.868Z,72.30
2018-10-18T09:58:55.250Z,73.30
2018-10-18T10:01:30.433Z,68.00
2018-10-18T10:04:05.401Z,70.90
2018-10-18T10:06:33.781Z,73.23
2018-10-18T10:09:03.199Z,77.83
2018-10-18T10:11:32.424Z,73.27
2018-10-18T10:14:00.877Z,85.83
2018-10-18T10:16:29.295Z,78.07
2018-10-18T10:18:57.840Z,66.67
2018-10-18T10:21:26.224Z,78.83
2018-10-18T10:23:54.608Z,74.17
2018-10-18T10:26:23.288Z,66.63
2018-10-18T10:28:51.602Z,68.43
2018-10-18T10:31:20.232Z,69.00
2018-10-18T10:33:48.450Z,61.07
2018-10-18T10:36:16.838Z,58.00
2018-10-18T10:38:45.168Z,64.33
2018-10-18T10:41:13.595Z,67.70
2018-10-18T10:43:41.845Z,59.50
2018-10-18T10:46:10.224Z,59.37
2018-10-18T10:48:38.819Z,61.33
2018-10-18T10:51:07.229Z,62.17
2018-10-18T10:53:35.535Z,57.20
2018-10-18T10:56:03.942Z,63.10
2018-10-18T10:58:32.279Z,63.40
2018-10-18T11:01:08.795Z,68.10
2018-10-18T11:03:37.827Z,68.10
2018-10-18T11:06:06.228Z,66.67
2018-10-18T11:08:35.308Z,67.13
2018-10-18T11:11:03.872Z,77.07
2018-10-18T11:13:32.564Z,75.63
2018-10-18T11:16:02.681Z,80.10
2018-10-18T11:18:32.190Z,80.57
2018-10-18T11:21:01.108Z,79.00
2018-10-18T11:23:29.519Z,81.17
2018-10-18T11:25:58.029Z,84.30
2018-10-18T11:28:26.385Z,85.37
2018-10-18T11:30:54.790Z,86.37
2018-10-18T11:33:24.023Z,81.90
2018-10-18T11:35:52.405Z,85.77
2018-10-18T11:38:21.116Z,80.33
2018-10-18T11:40:49.660Z,91.37
2018-10-18T11:43:18.040Z,87.50
2018-10-18T11:45:46.427Z,83.73
2018-10-18T11:48:15.296Z,100.23
2018-10-18T11:50:44.172Z,85.80
2018-10-18T11:53:12.502Z,94.80
2018-10-18T11:55:40.995Z,91.37
2018-10-18T11:58:10.592Z,83.37
2018-10-18T12:00:38.979Z,89.70
2018-10-18T12:03:07.331Z,88.90
2018-10-18T12:05:35.812Z,89.10
2018-10-18T12:08:04.488Z,92.43
2018-10-18T12:10:33.006Z,81.27
2018-10-18T12:13:01.308Z,87.83
2018-10-18T12:15:29.769Z,91.47
2018-10-18T12:17:58.071Z,93.50
2018-10-18T12:20:26.422Z,89.70
2018-10-18T12:22:54.871Z,86.53
2018-10-18T12:25:23.479Z,78.40
2018-10-18T12:27:51.935Z,87.10
2018-10-18T12:30:20.471Z,90.20
2018-10-18T12:32:49.128Z,93.23
2018-10-18T12:35:17.627Z,95.00
2018-10-18T12:37:45.820Z,93.67
2018-10-18T12:40:14.256Z,95.17
2018-10-18T12:42:43.612Z,86.80
2018-10-18T12:45:12.731Z,86.33
2018-10-18T12:47:41.823Z,92.97
2018-10-18T12:50:10.241Z,88.73
2018-10-18T12:52:38.803Z,91.70
2018-10-18T12:55:07.352Z,91.43
2018-10-18T12:57:35.676Z,90.73
2018-10-18T13:00:04.055Z,89.67
2018-10-18T13:02:35.379Z,95.93
2018-10-18T13:05:03.712Z,100.50
2018-10-18T13:07:32.094Z,91.13
2018-10-18T13:10:00.423Z,95.47
2018-10-18T13:12:28.826Z,109.97
2018-10-18T13:14:57.098Z,98.77
2018-10-18T13:17:25.402Z,94.40
2018-10-18T13:19:54.391Z,112.07
2018-10-18T13:22:22.842Z,110.80
2018-10-18T13:24:51.127Z,109.00
2018-10-18T13:27:19.529Z,110.33
2018-10-18T13:29:47.829Z,112.20
2018-10-18T13:32:16.283Z,113.50
2018-10-18T13:34:44.654Z,113.83
2018-10-18T13:37:13.008Z,113.40
2018-10-18T13:39:41.423Z,116.17
2018-10-18T13:42:09.793Z,123.63
2018-10-18T13:44:38.105Z,118.50
2018-10-18T13:47:09.548Z,105.00
2018-10-18T13:49:37.890Z,97.07
2018-10-18T13:52:06.267Z,101.33
2018-10-18T13:54:34.927Z,110.97
2018-10-18T13:57:03.254Z,103.23
2018-10-18T13:59:42.913Z,105.87
2018-10-18T14:02:11.417Z,102.13
2018-10-18T14:04:42.483Z,109.17
2018-10-18T14:07:11.128Z,94.17
2018-10-18T14:09:39.695Z,96.90
2018-10-18T14:12:08.122Z,96.37
2018-10-18T14:14:36.430Z,99.53
2018-10-18T14:17:04.845Z,96.37
2018-10-18T14:19:33.130Z,101.73
2018-10-18T14:22:01.575Z,103.60
2018-10-18T14:24:30.013Z,108.30
2018-10-18T14:26:58.413Z,103.00
2018-10-18T14:29:26.835Z,105.10
2018-10-18T14:31:55.321Z,97.00
2018-10-18T14:34:24.897Z,101.70
2018-10-18T14:36:53.315Z,100.80
2018-10-18T14:39:21.739Z,102.20
2018-10-18T14:41:50.584Z,103.30
2018-10-18T14:44:19.002Z,101.10
2018-10-18T14:46:47.414Z,98.10
2018-10-18T14:49:16.011Z,108.43
2018-10-18T14:51:44.363Z,98.60
2018-10-18T14:54:12.876Z,95.17
2018-10-18T14:56:41.249Z,110.13
2018-10-18T14:59:09.624Z,99.37
2018-10-18T15:01:37.975Z,104.30
2018-10-18T15:04:06.876Z,108.00
2018-10-18T15:06:35.509Z,95.40
2018-10-18T15:09:03.923Z,100.90
2018-10-18T15:11:32.381Z,110.03
2018-10-18T15:14:00.749Z,115.30
2018-10-18T15:16:29.470Z,98.37
2018-10-18T15:18:57.843Z,96.97
2018-10-18T15:21:26.871Z,112.10
2018-10-18T15:23:55.299Z,115.20
2018-10-18T15:26:24.381Z,111.37
2018-10-18T15:28:52.884Z,103.80
2018-10-18T15:31:21.388Z,108.30
2018-10-18T15:33:50.693Z,112.33
2018-10-18T15:36:19.181Z,106.87
2018-10-18T15:38:47.907Z,101.43
2018-10-18T15:41:16.381Z,106.77
2018-10-18T15:43:44.686Z,107.67
2018-10-18T15:46:13.190Z,102.30
2018-10-18T15:48:41.668Z,95.63
2018-10-18T15:51:10.062Z,103.73
2018-10-18T15:53:38.597Z,108.50
2018-10-18T15:56:06.993Z,109.50
2018-10-18T15:58:35.618Z,101.13
2018-10-18T16:01:04.492Z,106.27
2018-10-18T16:03:32.994Z,103.70
2018-10-18T16:06:03.061Z,101.03
2018-10-18T16:08:31.427Z,115.53
2018-10-18T16:11:00.068Z,102.73
2018-10-18T16:13:36.967Z,108.87
2018-10-18T16:16:06.167Z,99.87
2018-10-18T16:18:34.646Z,95.97
2018-10-18T16:21:03.056Z,103.43
2018-10-18T16:23:31.467Z,104.93
2018-10-18T16:25:59.905Z,100.83
2018-10-18T16:28:29.246Z,100.60
2018-10-18T16:30:57.591Z,102.50
2018-10-18T16:33:26.124Z,105.40
2018-10-18T16:35:54.459Z,101.13
2018-10-18T16:38:22.813Z,112.47
2018-10-18T16:40:53.474Z,96.50
2018-10-18T16:43:22.446Z,106.10
2018-10-18T16:45:50.774Z,107.10
2018-10-18T16:48:19.142Z,97.53
2018-10-18T16:50:49.093Z,88.23
2018-10-18T16:53:17.422Z,92.67
2018-10-18T16:55:46.396Z,92.47
2018-10-18T16:58:14.851Z,88.07
2018-10-18T17:00:43.191Z,91.77
2018-10-18T17:03:11.975Z,86.03
2018-10-18T17:05:40.337Z,98.27
2018-10-18T17:08:08.973Z,89.30
2018-10-18T17:10:37.347Z,93.37
2018-10-18T17:13:06.318Z,94.47
2018-10-18T17:15:35.296Z,81.50
2018-10-18T17:18:04.075Z,87.80
2018-10-18T17:20:32.515Z,71.63
2018-10-18T17:23:00.938Z,59.60
2018-10-18T17:25:29.504Z,57.27
2018-10-18T17:27:58.116Z,53.33
2018-10-18T17:30:26.615Z,45.90
2018-10-18T17:32:54.974Z,46.30
2018-10-18T17:35:23.321Z,44.40
2018-10-18T17:37:52.240Z,39.73
2018-10-18T17:40:21.006Z,46.67
2018-10-18T17:42:49.775Z,39.20
2018-10-18T17:45:18.749Z,48.50
2018-10-18T17:47:48.426Z,45.33
2018-10-18T17:50:16.880Z,56.43
2018-10-18T17:52:45.188Z,50.03
2018-10-18T17:55:13.685Z,56.80
2018-10-18T17:57:42.104Z,50.20
2018-10-18T18:00:12.163Z,53.07
2018-10-18T18:02:42.724Z,57.20
2018-10-18T18:05:21.400Z,66.13
2018-10-18T18:07:49.806Z,66.03
2018-10-18T18:10:20.377Z,59.97
2018-10-18T18:12:48.711Z,68.77
2018-10-18T18:15:17.072Z,60.17
2018-10-18T18:17:45.469Z,67.13
2018-10-18T18:20:15.118Z,59.20
2018-10-18T18:22:46.623Z,55.07
2018-10-18T18:25:15.972Z,52.90
2018-10-18T18:27:44.455Z,56.67
2018-10-18T18:30:14.228Z,54.70
2018-10-18T18:32:42.903Z,49.20
2018-10-18T18:35:11.357Z,48.57
2018-10-18T18:37:39.690Z,55.60
2018-10-18T18:40:08.915Z,60.27
2018-10-18T18:42:37.639Z,52.83
2018-10-18T18:45:11.408Z,49.03
2018-10-18T18:47:39.691Z,51.70
2018-10-18T18:50:08.589Z,45.20
2018-10-18T18:52:36.876Z,62.70
2018-10-18T18:55:06.272Z,46.00
2018-10-18T18:57:36.899Z,57.07
2018-10-18T19:00:06.959Z,45.33
2018-10-18T19:02:35.862Z,45.83
2018-10-18T19:05:04.291Z,45.07
2018-10-18T19:07:33.403Z,53.17
2018-10-18T19:10:01.703Z,49.30
2018-10-18T19:12:30.305Z,48.30
2018-10-18T19:14:58.633Z,52.03
2018-10-18T19:17:27.031Z,42.03
2018-10-18T19:19:55.575Z,45.70
2018-10-18T19:22:23.994Z,48.03
2018-10-18T19:24:52.787Z,32.47
2018-10-18T19:27:22.603Z,43.63
2018-10-18T19:29:51.831Z,34.80
2018-10-18T19:32:20.235Z,29.17
2018-10-18T19:34:49.070Z,25.87
2018-10-18T19:37:17.631Z,31.20
2018-10-18T19:39:45.981Z,28.20
2018-10-18T19:42:14.307Z,30.43
2018-10-18T19:44:42.594Z,29.03
2018-10-18T19:47:10.911Z,25.53
2018-10-18T19:49:39.205Z,25.57
2018-10-18T19:52:07.734Z,30.53
2018-10-18T19:54:36.178Z,24.37
2018-10-18T19:57:04.635Z,27.03
2018-10-18T19:59:32.935Z,20.00
2018-10-18T20:02:01.310Z,20.90
2018-10-18T20:04:30.359Z,24.60
2018-10-18T20:06:58.788Z,25.10
2018-10-18T20:09:27.115Z,22.00
2018-10-18T20:11:55.570Z,21.60
2018-10-18T20:14:24.055Z,23.07
2018-10-18T20:16:52.535Z,23.60
2018-10-18T20:19:27.634Z,22.07
2018-10-18T20:21:56.023Z,29.67
2018-10-18T20:24:24.496Z,26.60
2018-10-18T20:26:53.165Z,27.00
2018-10-18T20:29:22.047Z,29.50
2018-10-18T20:31:50.631Z,26.10
2018-10-18T20:34:18.943Z,18.37
2018-10-18T20:36:47.898Z,15.93
2018-10-18T20:39:16.248Z,27.43
2018-10-18T20:41:44.995Z,23.73
2018-10-18T20:44:13.371Z,21.00
2018-10-18T20:46:41.858Z,21.17
2018-10-18T20:49:10.564Z,17.77
2018-10-18T20:51:42.390Z,23.07
2018-10-18T20:54:11.403Z,17.50
2018-10-18T20:56:39.956Z,18.43
2018-10-18T20:59:08.411Z,12.10
2018-10-18T21:01:36.724Z,15.60
2018-10-18T21:04:08.386Z,17.70
2018-10-18T21:06:37.037Z,12.73
2018-10-18T21:09:07.714Z,18.80
2018-10-18T21:11:36.121Z,15.33
2018-10-18T21:14:04.773Z,14.07
2018-10-18T21:16:33.471Z,13.77
2018-10-18T21:19:01.787Z,14.30
2018-10-18T21:21:30.286Z,14.43
2018-10-18T21:23:58.767Z,11.20
2018-10-18T21:26:27.124Z,15.50
2018-10-18T21:28:55.646Z,13.90
2018-10-18T21:31:24.212Z,11.10
2018-10-18T21:33:52.935Z,12.00
2018-10-18T21:36:21.248Z,11.40
2018-10-18T21:38:50.241Z,17.27
2018-10-18T21:41:18.575Z,10.63
2018-10-18T21:43:46.878Z,8.10
2018-10-18T21:46:15.238Z,22.07
2018-10-18T21:48:44.129Z,8.60
2018-10-18T21:51:12.633Z,12.73
2018-10-18T21:53:40.818Z,10.90
2018-10-18T21:56:09.248Z,16.30
2018-10-18T21:58:37.527Z,8.30
2018-10-18T22:01:06.055Z,12.03
2018-10-18T22:03:35.564Z,9.57
2018-10-18T22:06:03.880Z,9.90
2018-10-18T22:08:32.184Z,16.80
2018-10-18T22:11:01.002Z,10.40
2018-10-18T22:13:29.357Z,13.17
2018-10-18T22:15:57.670Z,10.13
2018-10-18T22:18:25.954Z,7.97
2018-10-18T22:20:54.481Z,7.47
2018-10-18T22:23:23.461Z,8.67
2018-10-18T22:25:51.806Z,9.97
2018-10-18T22:28:21.210Z,9.70
2018-10-18T22:30:49.813Z,7.83
2018-10-18T22:33:20.709Z,12.50
2018-10-18T22:35:51.644Z,7.10
2018-10-18T22:38:21.197Z,5.00
2018-10-18T22:40:49.580Z,9.80
2018-10-18T22:43:18.147Z,11.57
2018-10-18T22:45:51.926Z,11.27
2018-10-18T22:48:20.454Z,6.37
2018-10-18T22:50:50.599Z,8.50
2018-10-18T22:53:20.701Z,9.03
2018-10-18T22:55:51.745Z,8.80
2018-10-18T22:58:21.664Z,6.73
2018-10-18T23:00:54.285Z,9.30
2018-10-18T23:03:24.827Z,10.50
2018-10-18T23:05:55.458Z,10.40
2018-10-18T23:08:25.238Z,8.10
2018-10-18T23:10:54.101Z,16.07
2018-10-18T23:13:22.437Z,12.83
2018-10-18T23:15:51.140Z,6.23
2018-10-18T23:18:19.471Z,8.67
2018-10-18T23:20:48.044Z,7.63
2018-10-18T23:23:16.521Z,13.27
2018-10-18T23:25:45.024Z,19.80
2018-10-18T23:28:13.934Z,14.57
2018-10-18T23:30:43.198Z,13.10
2018-10-18T23:33:11.577Z,8.63
2018-10-18T23:35:40.270Z,9.60
2018-10-18T23:38:08.563Z,16.50
2018-10-18T23:40:36.875Z,7.70
2018-10-18T23:43:05.387Z,10.40
2018-10-18T23:45:33.746Z,17.70
2018-10-18T23:48:02.058Z,15.57
2018-10-18T23:50:30.374Z,11.50
2018-10-18T23:52:58.680Z,8.77
2018-10-18T23:55:27.150Z,9.87
2018-10-18T23:57:55.431Z,8.20
